Time;durP1;ratioP1;P1;durP2;ratioP2;P2;SDS_P1;SDS_P2;PMS_P1;PMS_P2;Temp;Humidity;BMP_temperature;BMP_pressure;BME280_temperature;BME280_humidity;BME280_pressure;Samples;Min_cycle;Max_cycle;Signal;HPM_P1;HPM_P2
2022/02/19 00:01:15;;;;;;;2.95;1.55;;;9.20;90.80;;;;;;5114504;28;20209;-71
2022/02/19 00:03:42;;;;;;;4.40;1.30;;;9.30;91.00;;;;;;5114790;28;20236;-68
2022/02/19 00:06:09;;;;;;;6.75;1.50;;;9.30;90.80;;;;;;5114270;28;20271;-68
2022/02/19 00:08:36;;;;;;;5.30;1.35;;;9.30;90.60;;;;;;5114347;28;20689;-68
2022/02/19 00:11:04;;;;;;;3.75;1.60;;;9.20;90.60;;;;;;5114308;28;20562;-68
2022/02/19 00:13:32;;;;;;;3.30;1.50;;;9.30;90.80;;;;;;5114586;28;20292;-68
2022/02/19 00:16:01;;;;;;;2.25;1.20;;;9.30;90.80;;;;;;5114061;28;20211;-68
2022/02/19 00:18:27;;;;;;;3.20;1.17;;;9.30;90.70;;;;;;5114315;28;20209;-67
2022/02/19 00:20:56;;;;;;;2.45;1.20;;;9.30;90.70;;;;;;5113930;28;20244;-68
2022/02/19 00:23:26;;;;;;;3.75;1.90;;;9.20;90.60;;;;;;5113801;28;20201;-67
2022/02/19 00:25:53;;;;;;;3.92;1.30;;;9.10;90.80;;;;;;5114104;28;20292;-68
2022/02/19 00:28:21;;;;;;;2.70;1.25;;;9.20;90.60;;;;;;5113687;28;20587;-68
2022/02/19 00:30:48;;;;;;;2.50;1.38;;;9.10;89.20;;;;;;5114063;28;20238;-69
2022/02/19 00:33:14;;;;;;;3.25;1.10;;;9.10;88.50;;;;;;5113789;28;20686;-69
2022/02/19 00:35:42;;;;;;;3.80;1.30;;;9.20;88.20;;;;;;5113660;28;20251;-68
2022/02/19 00:38:09;;;;;;;2.83;1.15;;;9.20;88.60;;;;;;5113776;28;20221;-68
2022/02/19 00:40:36;;;;;;;5.13;1.40;;;9.20;88.40;;;;;;5113436;28;20197;-68
2022/02/19 00:43:03;;;;;;;3.95;1.70;;;9.20;87.60;;;;;;5113742;28;20297;-69
2022/02/19 00:45:31;;;;;;;3.45;1.60;;;9.20;87.90;;;;;;5113526;28;20769;-67
2022/02/19 00:47:58;;;;;;;3.83;1.27;;;9.20;87.10;;;;;;5113531;28;20235;-68
2022/02/19 00:50:25;;;;;;;2.28;1.30;;;9.20;87.30;;;;;;5113307;28;20193;-68
2022/02/19 00:52:55;;;;;;;4.50;1.92;;;9.20;87.50;;;;;;5113612;28;20681;-68
2022/02/19 00:55:22;;;;;;;2.58;1.50;;;9.20;87.50;;;;;;5113318;28;20220;-68
2022/02/19 00:57:49;;;;;;;4.97;1.40;;;9.20;87.30;;;;;;5112744;28;20213;-68
2022/02/19 01:00:16;;;;;;;5.45;1.38;;;9.20;87.20;;;;;;5113405;28;20309;-68
2022/02/19 01:02:45;;;;;;;4.30;1.60;;;9.20;87.20;;;;;;5113434;28;20288;-67
2022/02/19 01:05:12;;;;;;;3.60;1.40;;;9.10;87.00;;;;;;5113412;28;20292;-66
2022/02/19 01:07:39;;;;;;;5.70;1.33;;;9.10;86.80;;;;;;5113002;28;20225;-67
2022/02/19 01:10:07;;;;;;;4.60;1.45;;;9.10;86.70;;;;;;5112781;28;20208;-67
2022/02/19 01:12:34;;;;;;;2.95;1.30;;;9.10;85.40;;;;;;5113187;28;20205;-68
2022/02/19 01:15:01;;;;;;;6.95;1.83;;;9.00;85.10;;;;;;5112948;28;20292;-68
2022/02/19 01:17:28;;;;;;;3.40;1.40;;;9.10;85.70;;;;;;5112975;28;20222;-68
2022/02/19 01:19:57;;;;;;;4.43;1.45;;;9.00;85.10;;;;;;5112805;28;20212;-67
2022/02/19 01:22:23;;;;;;;4.10;1.48;;;9.10;85.60;;;;;;5112856;28;20677;-68
2022/02/19 01:24:50;;;;;;;3.88;1.50;;;9.00;85.10;;;;;;5113023;28;20204;-68
2022/02/19 01:27:17;;;;;;;6.65;1.60;;;9.00;85.40;;;;;;5112776;28;20272;-68
2022/02/19 01:29:45;;;;;;;4.07;2.08;;;9.00;85.30;;;;;;5112683;28;20202;-67
2022/02/19 01:32:12;;;;;;;2.20;1.13;;;9.00;84.60;;;;;;5112782;28;20209;-66
2022/02/19 01:34:39;;;;;;;3.28;1.30;;;9.00;84.60;;;;;;5112696;28;20693;-67
2022/02/19 01:37:07;;;;;;;3.28;1.40;;;9.00;84.10;;;;;;5112616;28;20232;-67
2022/02/19 01:39:34;;;;;;;4.63;1.00;;;9.10;84.50;;;;;;5113046;28;20292;-67
2022/02/19 01:42:01;;;;;;;6.15;1.70;;;9.10;84.50;;;;;;5112495;28;20224;-67
2022/02/19 01:44:35;;;;;;;2.13;1.17;;;9.10;84.50;;;;;;5112655;28;20288;-66
2022/02/19 01:47:02;;;;;;;4.15;1.42;;;9.00;83.60;;;;;;5112572;28;20224;-66
2022/02/19 01:49:29;;;;;;;2.50;1.25;;;9.00;82.70;;;;;;5112748;28;20197;-66
2022/02/19 01:51:57;;;;;;;3.70;1.20;;;9.10;82.70;;;;;;5112660;28;20296;-66
2022/02/19 01:54:25;;;;;;;5.35;2.00;;;9.00;82.00;;;;;;5112502;28;20679;-66
2022/02/19 01:56:53;;;;;;;4.25;1.30;;;9.00;82.30;;;;;;5112669;28;20221;-66
2022/02/19 01:59:21;;;;;;;5.07;1.67;;;9.00;81.50;;;;;;5112912;28;20197;-66
2022/02/19 02:01:48;;;;;;;3.92;1.63;;;8.90;82.30;;;;;;5112356;28;20233;-66
2022/02/19 02:04:15;;;;;;;2.15;0.90;;;8.90;81.40;;;;;;5112472;28;20205;-66
2022/02/19 02:06:43;;;;;;;3.33;1.08;;;8.90;80.00;;;;;;5112512;28;20660;-65
2022/02/19 02:09:10;;;;;;;2.45;0.75;;;8.80;79.30;;;;;;5115501;28;20201;-68
2022/02/19 02:11:39;;;;;;;5.13;1.10;;;8.70;80.30;;;;;;5118065;28;20208;-68
2022/02/19 02:14:05;;;;;;;2.38;1.00;;;8.70;79.60;;;;;;5118073;28;20204;-68
2022/02/19 02:16:36;;;;;;;2.20;1.20;;;8.70;78.60;;;;;;5117958;28;20216;-69
2022/02/19 02:19:02;;;;;;;3.95;1.30;;;8.70;78.80;;;;;;5118028;28;20210;-68
2022/02/19 02:21:31;;;;;;;4.30;1.45;;;8.70;78.90;;;;;;5117670;28;20212;-68
2022/02/19 02:23:58;;;;;;;4.40;1.63;;;8.70;79.20;;;;;;5117918;28;20197;-68
2022/02/19 02:26:25;;;;;;;1.52;0.70;;;8.70;78.70;;;;;;5117800;28;20650;-68
2022/02/19 02:28:52;;;;;;;1.05;0.65;;;8.70;78.30;;;;;;5117436;28;20220;-68
2022/02/19 02:31:19;;;;;;;1.55;1.15;;;8.60;78.10;;;;;;5117384;28;20212;-68
2022/02/19 02:33:48;;;;;;;4.43;1.40;;;8.60;78.00;;;;;;5117682;28;20201;-68
2022/02/19 02:36:15;;;;;;;6.22;1.30;;;8.60;78.10;;;;;;5117450;28;20221;-68
2022/02/19 02:38:44;;;;;;;4.63;1.55;;;8.60;78.30;;;;;;5117303;28;20662;-68
2022/02/19 02:41:11;;;;;;;2.70;1.23;;;8.70;79.00;;;;;;5117234;28;20296;-68
2022/02/19 02:43:38;;;;;;;2.90;1.20;;;8.70;79.50;;;;;;5117464;28;20208;-68
2022/02/19 02:46:05;;;;;;;3.28;1.30;;;8.70;79.20;;;;;;5117351;28;20217;-68
2022/02/19 02:48:32;;;;;;;4.45;1.23;;;8.70;79.00;;;;;;5117157;28;20308;-68
2022/02/19 02:51:01;;;;;;;6.28;1.23;;;8.60;79.00;;;;;;5117152;28;20266;-68
2022/02/19 02:53:28;;;;;;;1.42;1.20;;;8.60;79.00;;;;;;5117297;28;20205;-68
2022/02/19 02:55:56;;;;;;;3.78;1.10;;;8.60;79.00;;;;;;5117123;28;20198;-68
2022/02/19 02:58:23;;;;;;;5.88;1.38;;;8.50;78.80;;;;;;5117152;28;20204;-68
2022/02/19 03:00:51;;;;;;;2.80;1.00;;;8.50;80.00;;;;;;5117270;28;20198;-68
2022/02/19 03:03:18;;;;;;;3.72;1.50;;;8.40;78.80;;;;;;5117058;28;20201;-68
2022/02/19 03:05:45;;;;;;;3.88;1.33;;;8.40;79.20;;;;;;5116830;28;20201;-68
2022/02/19 03:08:12;;;;;;;4.97;1.40;;;8.40;79.70;;;;;;5116955;28;20228;-68
2022/02/19 03:10:38;;;;;;;5.35;1.65;;;8.50;80.10;;;;;;5116544;28;20201;-68
2022/02/19 03:13:06;;;;;;;6.60;1.90;;;8.50;79.90;;;;;;5116647;28;20632;-68
2022/02/19 03:15:33;;;;;;;4.30;1.63;;;8.50;80.10;;;;;;5116624;28;20297;-68
2022/02/19 03:18:00;;;;;;;5.30;1.42;;;8.40;80.10;;;;;;5116789;28;20304;-68
2022/02/19 03:20:27;;;;;;;5.22;1.70;;;8.40;80.20;;;;;;5115414;28;20567;-68
2022/02/19 03:22:55;;;;;;;3.53;1.40;;;8.30;79.40;;;;;;5116994;28;20302;-68
2022/02/19 03:25:22;;;;;;;6.55;1.75;;;8.30;79.90;;;;;;5116581;28;20205;-68
2022/02/19 03:27:48;;;;;;;3.92;1.52;;;8.30;79.80;;;;;;5116262;28;20247;-68
2022/02/19 03:30:17;;;;;;;2.30;1.20;;;8.20;79.50;;;;;;5116282;28;20202;-68
2022/02/19 03:32:44;;;;;;;6.88;1.90;;;8.30;80.20;;;;;;5116333;28;20296;-68
2022/02/19 03:35:11;;;;;;;4.78;1.55;;;8.30;79.70;;;;;;5116528;28;20696;-68
2022/02/19 03:37:40;;;;;;;2.38;0.90;;;8.20;79.70;;;;;;5116365;28;20219;-68
2022/02/19 03:40:09;;;;;;;2.80;1.40;;;8.20;78.80;;;;;;5116298;28;20205;-67
2022/02/19 03:42:36;;;;;;;2.22;1.23;;;8.10;79.70;;;;;;5116613;28;20292;-68
2022/02/19 03:45:05;;;;;;;4.00;1.30;;;8.10;79.20;;;;;;5116809;28;20292;-68
2022/02/19 03:47:35;;;;;;;2.17;1.20;;;8.10;79.60;;;;;;5116414;28;20308;-68
2022/02/19 03:50:02;;;;;;;2.88;1.05;;;8.10;79.50;;;;;;5116184;28;20212;-68
2022/02/19 03:52:28;;;;;;;2.03;1.08;;;8.10;80.20;;;;;;5116158;28;20203;-68
2022/02/19 03:54:55;;;;;;;4.20;1.67;;;8.10;80.60;;;;;;5116298;28;20307;-68
2022/02/19 03:57:22;;;;;;;3.33;1.08;;;8.10;80.50;;;;;;5116115;28;20217;-68
2022/02/19 03:59:49;;;;;;;3.25;1.20;;;8.00;80.50;;;;;;5115892;28;20209;-68
2022/02/19 04:02:16;;;;;;;2.97;0.98;;;8.00;80.80;;;;;;5116152;28;20201;-68
2022/02/19 04:04:44;;;;;;;4.47;1.25;;;8.00;81.10;;;;;;5116031;28;20223;-68
2022/02/19 04:07:11;;;;;;;4.18;1.10;;;8.00;81.60;;;;;;5115726;28;20312;-68
2022/02/19 04:09:37;;;;;;;4.80;1.63;;;8.00;81.20;;;;;;5115895;28;20197;-67
2022/02/19 04:12:05;;;;;;;4.50;0.95;;;8.00;80.40;;;;;;5115811;28;20208;-67
2022/02/19 04:14:32;;;;;;;2.45;1.50;;;8.00;80.60;;;;;;5115825;28;20224;-67
2022/02/19 04:16:59;;;;;;;3.42;1.10;;;7.90;79.90;;;;;;5115483;28;20308;-67
2022/02/19 04:19:25;;;;;;;5.75;1.23;;;7.90;80.20;;;;;;5115861;28;20201;-67
2022/02/19 04:21:53;;;;;;;4.35;1.45;;;7.80;80.00;;;;;;5115257;28;20652;-67
2022/02/19 04:24:20;;;;;;;2.17;0.95;;;7.80;78.80;;;;;;5115567;28;20203;-67
2022/02/19 04:26:47;;;;;;;4.72;1.30;;;7.70;78.30;;;;;;5115203;28;20233;-68
2022/02/19 04:29:14;;;;;;;6.68;0.98;;;7.70;78.30;;;;;;5115504;28;20296;-67
2022/02/19 04:31:41;;;;;;;2.03;1.10;;;7.70;78.50;;;;;;5115061;28;20210;-67
2022/02/19 04:34:08;;;;;;;2.50;1.10;;;7.70;78.00;;;;;;5115274;28;20233;-67
2022/02/19 04:36:36;;;;;;;1.98;0.75;;;7.70;78.40;;;;;;5115347;27;20245;-67
2022/02/19 04:39:04;;;;;;;4.88;1.60;;;7.60;77.40;;;;;;5115217;28;20240;-67
2022/02/19 04:41:31;;;;;;;5.85;1.48;;;7.60;78.00;;;;;;5115118;28;20232;-67
2022/02/19 04:43:57;;;;;;;2.05;0.88;;;7.60;78.50;;;;;;5115086;28;20197;-67
2022/02/19 04:46:24;;;;;;;3.95;1.00;;;7.50;78.40;;;;;;5114962;28;20221;-67
2022/02/19 04:48:51;;;;;;;2.55;0.90;;;7.50;78.70;;;;;;5114720;28;20231;-67
2022/02/19 04:51:18;;;;;;;5.78;1.20;;;7.50;79.20;;;;;;5114826;28;20237;-67
2022/02/19 04:53:45;;;;;;;3.05;0.98;;;7.50;79.40;;;;;;5114966;28;20207;-67
2022/02/19 04:56:13;;;;;;;2.35;0.95;;;7.40;79.60;;;;;;5114707;28;20760;-67
2022/02/19 04:58:40;;;;;;;4.60;1.20;;;7.40;79.90;;;;;;5114897;28;20206;-67
2022/02/19 05:01:06;;;;;;;6.97;1.30;;;7.40;79.70;;;;;;5114589;28;20204;-67
2022/02/19 05:03:35;;;;;;;2.90;1.20;;;7.40;80.20;;;;;;5114790;28;20202;-67
2022/02/19 05:06:02;;;;;;;3.33;1.20;;;7.30;79.80;;;;;;5114410;28;20201;-67
2022/02/19 05:08:28;;;;;;;4.00;1.25;;;7.30;80.00;;;;;;5114648;28;20586;-67
2022/02/19 05:10:55;;;;;;;2.75;1.10;;;7.30;80.10;;;;;;5114328;28;20233;-67
2022/02/19 05:13:23;;;;;;;5.40;1.40;;;7.30;80.60;;;;;;5114837;28;20682;-67
2022/02/19 05:15:50;;;;;;;3.35;1.70;;;7.20;80.40;;;;;;5114303;28;20215;-67
2022/02/19 05:18:17;;;;;;;5.07;1.60;;;7.30;80.70;;;;;;5114498;28;20209;-67
2022/02/19 05:20:44;;;;;;;5.70;1.40;;;7.30;80.50;;;;;;5114335;28;20292;-67
2022/02/19 05:23:11;;;;;;;3.30;1.00;;;7.20;80.10;;;;;;5114367;28;20567;-67
2022/02/19 05:25:40;;;;;;;7.10;1.40;;;7.20;80.20;;;;;;5114263;28;20233;-67
2022/02/19 05:28:07;;;;;;;4.53;1.42;;;7.30;80.50;;;;;;5114035;28;20270;-67
2022/02/19 05:30:36;;;;;;;3.13;1.15;;;7.20;80.50;;;;;;5114053;28;20590;-67
2022/02/19 05:33:03;;;;;;;3.70;0.88;;;7.20;80.50;;;;;;5114264;28;20288;-67
2022/02/19 05:35:29;;;;;;;3.28;1.10;;;7.20;80.60;;;;;;5114072;28;20216;-67
2022/02/19 05:37:56;;;;;;;5.90;1.52;;;7.20;81.30;;;;;;5114115;28;20217;-67
2022/02/19 05:40:23;;;;;;;3.60;1.50;;;7.30;81.30;;;;;;5114154;28;20232;-67
2022/02/19 05:42:50;;;;;;;5.47;1.52;;;7.20;81.00;;;;;;5113899;28;20230;-67
2022/02/19 05:45:17;;;;;;;2.92;1.10;;;7.30;80.60;;;;;;5113655;28;20288;-67
2022/02/19 05:47:45;;;;;;;3.67;1.08;;;7.20;80.80;;;;;;5114018;28;20640;-67
2022/02/19 05:50:12;;;;;;;4.18;1.40;;;7.20;81.30;;;;;;5113675;28;20210;-67
2022/02/19 05:52:39;;;;;;;5.47;1.63;;;7.20;81.60;;;;;;5114005;28;20232;-67
2022/02/19 05:55:07;;;;;;;3.70;1.30;;;7.10;81.40;;;;;;5113952;28;20679;-67
2022/02/19 05:57:40;;;;;;;5.88;0.85;;;7.10;81.60;;;;;;5113897;28;20557;-67
2022/02/19 06:00:09;;;;;;;5.55;1.25;;;7.10;81.40;;;;;;5113811;28;20549;-67
2022/02/19 06:02:36;;;;;;;5.57;1.30;;;7.10;81.40;;;;;;5114166;28;20269;-67
2022/02/19 06:05:05;;;;;;;6.93;1.80;;;7.10;81.70;;;;;;5113796;28;20673;-67
2022/02/19 06:07:32;;;;;;;5.00;1.35;;;7.10;81.90;;;;;;5113851;28;20229;-67
2022/02/19 06:09:59;;;;;;;3.45;1.30;;;7.10;82.00;;;;;;5113492;28;20228;-67
2022/02/19 06:12:26;;;;;;;3.65;1.27;;;7.10;81.70;;;;;;5113880;28;20287;-67
2022/02/19 06:14:53;;;;;;;3.72;1.30;;;7.00;81.80;;;;;;5113636;28;20292;-67
2022/02/19 06:17:20;;;;;;;3.50;1.20;;;7.00;82.50;;;;;;5114190;28;20583;-67
2022/02/19 06:19:46;;;;;;;4.18;1.27;;;7.00;82.10;;;;;;5113682;28;20200;-67
2022/02/19 06:22:14;;;;;;;3.22;0.85;;;6.90;82.10;;;;;;5113807;28;20203;-67
2022/02/19 06:24:41;;;;;;;3.53;1.60;;;6.90;82.10;;;;;;5113462;28;20197;-67
2022/02/19 06:27:08;;;;;;;3.00;1.27;;;6.90;82.30;;;;;;5113567;28;20236;-67
2022/02/19 06:29:35;;;;;;;6.30;1.35;;;6.90;82.50;;;;;;5113644;28;20231;-67
2022/02/19 06:32:02;;;;;;;5.65;1.10;;;6.90;82.60;;;;;;5113549;28;20212;-67
2022/02/19 06:34:29;;;;;;;6.95;1.52;;;6.90;82.90;;;;;;5113674;28;20270;-67
2022/02/19 06:36:56;;;;;;;1.42;1.10;;;6.80;82.90;;;;;;5113381;28;20236;-67
2022/02/19 06:39:24;;;;;;;7.43;1.52;;;6.80;83.20;;;;;;5113694;28;20255;-67
2022/02/19 06:41:51;;;;;;;3.40;1.30;;;6.80;83.00;;;;;;5113577;28;20205;-67
2022/02/19 06:44:18;;;;;;;3.45;1.38;;;6.90;85.00;;;;;;5113586;28;20623;-67
2022/02/19 06:46:45;;;;;;;3.92;1.23;;;6.70;83.10;;;;;;5113408;28;20593;-67
2022/02/19 06:49:12;;;;;;;4.25;1.25;;;6.80;83.40;;;;;;5113469;28;20706;-67
2022/02/19 06:51:39;;;;;;;3.80;1.48;;;6.80;83.20;;;;;;5113133;28;20623;-67
2022/02/19 06:54:06;;;;;;;4.82;1.30;;;6.80;83.50;;;;;;5113494;28;20564;-67
2022/02/19 06:56:34;;;;;;;4.50;1.40;;;6.70;84.00;;;;;;5116852;28;20314;-67
2022/02/19 06:59:01;;;;;;;3.83;1.50;;;6.80;83.70;;;;;;5117192;28;20544;-67
2022/02/19 07:01:28;;;;;;;7.38;1.10;;;6.80;83.50;;;;;;5116956;28;20204;-67
2022/02/19 07:03:57;;;;;;;2.20;1.10;;;6.80;83.80;;;;;;5117116;28;20201;-67
2022/02/19 07:06:23;;;;;;;6.63;1.25;;;6.80;83.70;;;;;;5117026;28;20230;-67
2022/02/19 07:08:50;;;;;;;2.80;1.30;;;6.80;83.50;;;;;;5116652;28;20316;-67
2022/02/19 07:11:17;;;;;;;5.60;1.30;;;6.80;83.20;;;;;;5116819;28;20232;-67
2022/02/19 07:13:45;;;;;;;5.43;1.23;;;6.80;83.40;;;;;;5117115;28;20205;-68
2022/02/19 07:16:12;;;;;;;3.33;0.98;;;6.80;83.90;;;;;;5116720;28;20247;-67
2022/02/19 07:18:39;;;;;;;5.25;1.55;;;6.80;83.30;;;;;;5116779;28;20329;-67
2022/02/19 07:21:06;;;;;;;5.57;1.75;;;6.80;83.60;;;;;;5116595;28;20229;-67
2022/02/19 07:23:32;;;;;;;4.22;1.00;;;6.80;83.50;;;;;;5116695;28;20201;-67
2022/02/19 07:26:00;;;;;;;4.25;1.40;;;6.70;83.60;;;;;;5116632;28;20559;-67
2022/02/19 07:28:27;;;;;;;5.20;1.55;;;6.70;83.60;;;;;;5116264;28;22130;-67
2022/02/19 07:30:55;;;;;;;4.47;1.10;;;6.70;83.70;;;;;;5116178;28;20667;-67
2022/02/19 07:33:22;;;;;;;5.80;1.40;;;6.80;83.70;;;;;;5116490;28;20212;-67
2022/02/19 07:35:48;;;;;;;4.82;1.60;;;6.80;83.90;;;;;;5116348;28;20308;-67
2022/02/19 07:38:15;;;;;;;4.15;1.48;;;6.80;83.80;;;;;;5116521;28;20207;-67
2022/02/19 07:40:42;;;;;;;3.30;1.10;;;6.80;83.60;;;;;;5116080;28;20197;-67
2022/02/19 07:43:09;;;;;;;3.78;1.13;;;6.70;83.90;;;;;;5116343;28;20198;-67
2022/02/19 07:45:36;;;;;;;3.70;1.52;;;6.70;84.10;;;;;;5116245;28;20207;-67
2022/02/19 07:48:04;;;;;;;5.40;1.27;;;6.70;84.20;;;;;;5116116;28;20232;-67
2022/02/19 07:58:44;;;;;;;6.60;1.60;;;7.00;84.90;;;;;;5115926;28;20205;-67
2022/02/19 08:01:12;;;;;;;6.30;2.00;;;7.10;84.70;;;;;;5115577;28;20206;-67
2022/02/19 08:03:40;;;;;;;4.78;1.60;;;7.10;85.30;;;;;;5115969;28;20252;-67
2022/02/19 08:06:07;;;;;;;5.22;1.27;;;7.20;85.00;;;;;;5115540;28;20226;-68
2022/02/19 08:08:34;;;;;;;3.95;1.75;;;7.10;84.20;;;;;;5115588;28;20228;-67
2022/02/19 08:11:01;;;;;;;4.70;1.67;;;7.10;84.90;;;;;;5115342;28;20206;-67
2022/02/19 08:13:28;;;;;;;7.25;1.50;;;7.00;84.50;;;;;;5115787;28;20208;-67
2022/02/19 08:15:55;;;;;;;3.90;2.00;;;7.10;85.10;;;;;;5115437;28;20212;-67
2022/02/19 08:18:23;;;;;;;5.80;2.60;;;7.10;84.80;;;;;;5115715;28;20236;-68
2022/02/19 08:20:53;;;;;;;3.72;1.40;;;7.10;85.00;;;;;;5115592;28;20197;-68
2022/02/19 08:23:21;;;;;;;5.43;1.70;;;7.20;85.50;;;;;;5115849;28;20620;-68
2022/02/19 08:25:49;;;;;;;3.42;1.20;;;7.20;84.80;;;;;;5115655;28;20213;-67
2022/02/19 08:28:16;;;;;;;5.25;1.20;;;7.20;84.00;;;;;;5115272;28;20295;-67
2022/02/19 08:30:44;;;;;;;5.05;1.90;;;7.30;84.30;;;;;;5115035;28;20218;-67
2022/02/19 08:33:12;;;;;;;2.40;0.95;;;7.20;84.40;;;;;;5115360;28;20205;-67
2022/02/19 08:35:41;;;;;;;3.30;1.40;;;7.20;83.40;;;;;;5115288;28;20304;-67
2022/02/19 08:38:10;;;;;;;3.00;1.55;;;7.10;83.50;;;;;;5115179;28;20595;-67
2022/02/19 08:40:38;;;;;;;4.57;1.25;;;7.20;84.20;;;;;;5114798;28;20242;-67
2022/02/19 08:43:05;;;;;;;2.80;0.98;;;7.20;84.50;;;;;;5115559;27;20202;-67
2022/02/19 08:45:32;;;;;;;4.95;2.15;;;7.20;84.70;;;;;;5122532;27;20205;-68
2022/02/19 08:48:04;;;;;;;3.60;1.77;;;7.30;84.20;;;;;;5113716;28;20770;-68
2022/02/19 08:50:32;;;;;;;6.65;1.45;;;7.40;83.80;;;;;;5113397;28;20545;-68
2022/02/19 08:52:58;;;;;;;4.03;1.98;;;7.30;83.90;;;;;;5113884;28;20591;-68
2022/02/19 08:55:27;;;;;;;2.90;1.45;;;7.30;85.00;;;;;;5113508;28;20296;-68
2022/02/19 08:57:54;;;;;;;5.63;1.67;;;7.40;83.90;;;;;;5113258;28;20648;-67
2022/02/19 09:00:21;;;;;;;7.13;1.55;;;7.40;83.60;;;;;;5113244;28;20197;-68
2022/02/19 09:02:48;;;;;;;3.35;1.55;;;7.40;83.90;;;;;;5113498;28;20208;-68
2022/02/19 09:05:16;;;;;;;3.38;1.30;;;7.40;83.50;;;;;;5113380;28;20618;-68
2022/02/19 09:07:43;;;;;;;3.20;1.55;;;7.50;82.50;;;;;;5113328;28;20228;-67
2022/02/19 09:10:14;;;;;;;3.83;1.30;;;7.40;81.80;;;;;;5113197;28;20223;-68
2022/02/19 09:12:47;;;;;;;4.25;1.55;;;7.40;82.00;;;;;;5113413;28;20205;-68
2022/02/19 09:15:15;;;;;;;4.40;1.40;;;7.40;81.60;;;;;;5113286;28;20213;-68
2022/02/19 09:17:42;;;;;;;2.15;1.10;;;7.40;81.90;;;;;;5112865;28;20312;-68
2022/02/19 09:20:10;;;;;;;4.32;1.80;;;7.40;82.20;;;;;;5112667;28;20193;-68
2022/02/19 09:22:38;;;;;;;4.65;1.30;;;7.40;82.00;;;;;;5113249;28;20201;-67
2022/02/19 09:25:06;;;;;;;4.25;1.60;;;7.40;82.00;;;;;;5113149;28;20205;-67
2022/02/19 09:27:33;;;;;;;8.27;1.63;;;7.40;82.00;;;;;;5112677;28;20320;-67
2022/02/19 09:30:02;;;;;;;6.03;1.48;;;7.40;81.70;;;;;;5112572;28;20225;-67
2022/02/19 09:32:29;;;;;;;8.45;2.40;;;7.50;82.20;;;;;;5113282;28;20563;-67
2022/02/19 09:34:56;;;;;;;4.75;1.45;;;7.50;80.50;;;;;;5113278;28;20206;-67
2022/02/19 09:37:27;;;;;;;3.42;1.35;;;7.40;80.60;;;;;;5113020;28;20767;-67
2022/02/19 09:39:54;;;;;;;4.63;1.45;;;7.40;80.90;;;;;;5112748;28;20675;-67
2022/02/19 09:42:21;;;;;;;4.22;1.65;;;7.40;80.90;;;;;;5112847;28;20210;-67
2022/02/19 09:44:49;;;;;;;3.72;1.13;;;7.50;81.00;;;;;;5113159;28;20704;-67
2022/02/19 09:47:24;;;;;;;4.80;1.38;;;7.50;79.30;;;;;;5112845;28;20255;-67
2022/02/19 09:49:51;;;;;;;3.55;1.20;;;7.50;78.70;;;;;;5112575;28;20220;-68
2022/02/19 09:52:17;;;;;;;3.53;1.30;;;7.50;79.50;;;;;;5112827;28;20203;-67
2022/02/19 09:54:44;;;;;;;4.28;1.73;;;7.60;79.80;;;;;;5112923;28;20212;-67
2022/02/19 09:57:11;;;;;;;2.13;1.00;;;7.70;79.40;;;;;;5114138;28;20311;-67
2022/02/19 09:59:38;;;;;;;2.22;1.13;;;7.80;79.60;;;;;;5113879;28;20197;-67
2022/02/19 10:02:07;;;;;;;3.17;1.60;;;7.90;79.10;;;;;;5114124;28;20197;-67
2022/02/19 10:04:36;;;;;;;3.83;1.60;;;8.00;79.10;;;;;;5114217;28;20197;-67
2022/02/19 10:07:13;;;;;;;3.58;1.50;;;8.10;79.50;;;;;;5113681;28;20221;-67
2022/02/19 10:09:41;;;;;;;2.20;1.25;;;8.10;79.10;;;;;;5113824;28;20213;-69
2022/02/19 10:12:10;;;;;;;2.58;1.50;;;8.20;78.90;;;;;;5113702;28;20662;-67
2022/02/19 10:14:37;;;;;;;2.92;1.10;;;8.30;78.00;;;;;;5113963;28;20548;-68
2022/02/19 10:17:07;;;;;;;3.55;1.25;;;8.30;77.00;;;;;;5113962;28;20225;-69
2022/02/19 10:19:47;;;;;;;3.22;1.65;;;8.40;76.50;;;;;;5114080;28;20196;-69
2022/02/19 10:22:15;;;;;;;3.10;1.35;;;8.40;77.10;;;;;;5113906;28;20559;-67
2022/02/19 10:24:45;;;;;;;3.67;1.30;;;8.40;76.00;;;;;;5113995;28;20563;-67
2022/02/19 10:27:11;;;;;;;3.88;1.63;;;8.40;75.80;;;;;;5113701;28;20237;-66
2022/02/19 10:29:51;;;;;;;4.03;1.63;;;8.50;76.20;;;;;;5114532;28;20225;-69
2022/02/19 10:32:19;;;;;;;2.42;1.20;;;8.60;75.80;;;;;;5117730;28;20200;-68
2022/02/19 10:35:04;;;;;;;3.78;1.13;;;8.60;74.30;;;;;;5117924;28;20205;-69
2022/02/19 10:37:41;;;;;;;5.40;1.48;;;8.60;74.80;;;;;;5118082;28;20224;-69
2022/02/19 10:40:09;;;;;;;3.63;1.40;;;8.70;74.50;;;;;;5117891;28;20197;-69
2022/02/19 10:42:37;;;;;;;5.78;1.98;;;8.70;74.70;;;;;;5117807;28;20201;-69
2022/02/19 10:45:09;;;;;;;2.97;1.10;;;8.60;75.20;;;;;;5117701;28;20612;-69
2022/02/19 10:47:36;;;;;;;2.40;1.13;;;8.80;75.00;;;;;;5117648;28;20232;-68
2022/02/19 10:50:07;;;;;;;2.85;1.30;;;8.70;74.60;;;;;;5117270;28;20222;-69
2022/02/19 10:52:33;;;;;;;6.50;1.33;;;8.90;75.10;;;;;;5117550;28;20206;-68
2022/02/19 10:55:09;;;;;;;4.57;1.70;;;9.10;72.00;;;;;;5117273;28;20544;-69
2022/02/19 10:57:41;;;;;;;4.53;2.10;;;9.30;71.70;;;;;;5117397;28;20274;-68
2022/02/19 11:00:12;;;;;;;4.90;1.70;;;9.40;70.50;;;;;;5117095;28;20197;-69
2022/02/19 11:02:39;;;;;;;4.85;1.08;;;9.50;70.90;;;;;;5117335;28;20730;-69
2022/02/19 11:05:09;;;;;;;3.58;1.20;;;9.70;70.90;;;;;;5117286;28;20634;-69
2022/02/19 11:07:37;;;;;;;1.55;1.02;;;9.90;69.40;;;;;;5116979;28;20236;-69
2022/02/19 11:10:05;;;;;;;2.15;1.10;;;9.90;69.10;;;;;;5116943;28;20224;-69
2022/02/19 11:12:33;;;;;;;3.70;1.35;;;9.90;69.30;;;;;;5116825;28;20662;-69
2022/02/19 11:15:00;;;;;;;1.42;1.10;;;10.00;67.90;;;;;;5117069;28;20201;-69
2022/02/19 11:17:29;;;;;;;3.42;1.38;;;9.90;67.60;;;;;;5116978;28;20312;-68
2022/02/19 11:19:59;;;;;;;4.05;1.50;;;10.20;66.90;;;;;;5116717;28;20193;-69
2022/02/19 11:22:31;;;;;;;4.38;1.50;;;10.80;64.10;;;;;;5116908;28;20206;-68
2022/02/19 11:24:58;;;;;;;3.72;1.60;;;11.20;64.90;;;;;;5116963;28;20205;-69
2022/02/19 11:27:27;;;;;;;5.10;1.38;;;11.50;61.20;;;;;;5116809;28;20235;-69
2022/02/19 11:29:58;;;;;;;1.52;1.10;;;11.60;59.90;;;;;;5116494;28;20225;-68
2022/02/19 11:32:27;;;;;;;1.83;1.27;;;11.50;59.80;;;;;;5116916;27;20208;-69
2022/02/19 11:34:54;;;;;;;5.90;1.55;;;11.50;59.60;;;;;;5116699;28;20571;-69
2022/02/19 11:37:23;;;;;;;2.15;1.65;;;11.30;59.60;;;;;;5116750;28;20308;-69
2022/02/19 11:40:10;;;;;;;3.08;1.45;;;11.30;59.60;;;;;;5116557;28;20663;-69
2022/02/19 11:42:42;;;;;;;2.45;1.42;;;11.10;60.10;;;;;;5115748;28;20208;-69
2022/02/19 11:45:21;;;;;;;4.35;1.40;;;10.80;59.70;;;;;;5116687;28;20208;-69
2022/02/19 11:47:49;;;;;;;2.72;1.30;;;10.70;61.10;;;;;;5116173;28;20225;-69
2022/02/19 11:50:18;;;;;;;1.92;1.20;;;10.60;60.50;;;;;;5116027;28;20221;-69
2022/02/19 11:52:45;;;;;;;2.65;1.48;;;10.80;60.10;;;;;;5116609;28;20197;-69
2022/02/19 11:55:30;;;;;;;2.35;1.33;;;10.90;60.00;;;;;;5116359;28;20570;-69
2022/02/19 11:58:02;;;;;;;4.97;1.33;;;11.10;61.20;;;;;;5115990;28;20232;-69
2022/02/19 12:00:43;;;;;;;2.03;1.40;;;10.90;62.20;;;;;;5116096;28;20286;-69
2022/02/19 12:03:22;;;;;;;3.72;1.20;;;10.70;62.30;;;;;;5116106;28;20208;-68
2022/02/19 12:06:20;;;;;;;2.90;1.50;;;10.70;62.90;;;;;;5115932;28;20201;-69
2022/02/19 12:09:08;;;;;;;1.98;1.60;;;10.80;62.20;;;;;;5116190;28;20229;-69
2022/02/19 12:12:13;;;;;;;1.33;1.08;;;10.60;62.60;;;;;;5115816;28;20587;-69
2022/02/19 12:14:47;;;;;;;2.45;1.42;;;10.60;62.20;;;;;;5115936;27;20205;-69
2022/02/19 12:17:15;;;;;;;1.55;1.30;;;10.90;62.30;;;;;;5116254;28;20691;-69
2022/02/19 12:19:56;;;;;;;3.95;1.65;;;11.20;59.90;;;;;;5115571;28;20304;-68
2022/02/19 12:22:30;;;;;;;4.82;1.55;;;11.50;59.30;;;;;;5115716;28;20205;-69
2022/02/19 12:24:57;;;;;;;3.67;1.92;;;12.00;58.40;;;;;;5115671;28;20201;-68
2022/02/19 12:27:24;;;;;;;1.95;1.42;;;12.60;58.60;;;;;;5115100;28;20714;-69
2022/02/19 12:30:20;;;;;;;1.90;1.50;;;13.00;57.70;;;;;;5115232;28;20198;-69
2022/02/19 12:32:49;;;;;;;1.55;1.20;;;13.20;54.30;;;;;;5115389;28;20298;-69
2022/02/19 12:35:16;;;;;;;4.50;1.45;;;13.30;53.70;;;;;;5115045;28;20209;-68
2022/02/19 12:37:43;;;;;;;2.40;1.23;;;13.60;54.10;;;;;;5115264;28;20230;-69
2022/02/19 12:40:17;;;;;;;1.30;1.00;;;13.80;52.20;;;;;;5115167;28;20193;-69
2022/02/19 12:42:48;;;;;;;1.92;1.70;;;13.90;51.10;;;;;;5115126;28;20733;-68
2022/02/19 12:45:17;;;;;;;3.90;2.30;;;13.50;50.90;;;;;;5115112;28;20678;-69
2022/02/19 12:47:45;;;;;;;1.67;1.10;;;12.90;51.60;;;;;;5114912;28;20220;-68
2022/02/19 12:50:14;;;;;;;1.55;0.93;;;12.50;52.10;;;;;;5114965;28;20227;-69
2022/02/19 12:52:41;;;;;;;4.38;1.15;;;12.70;53.10;;;;;;5114948;28;20296;-68
2022/02/19 12:55:11;;;;;;;7.32;1.30;;;12.80;52.80;;;;;;5114830;28;20655;-69
2022/02/19 12:57:39;;;;;;;2.30;1.20;;;13.10;52.10;;;;;;5115010;28;20221;-68
2022/02/19 13:00:08;;;;;;;1.23;1.02;;;13.10;50.60;;;;;;5114708;28;20205;-69
2022/02/19 13:02:36;;;;;;;4.15;1.75;;;12.90;50.80;;;;;;5114578;28;20248;-69
2022/02/19 13:05:08;;;;;;;2.47;0.95;;;13.00;51.40;;;;;;5114874;28;20213;-69
2022/02/19 13:07:35;;;;;;;2.72;1.10;;;12.90;51.10;;;;;;5114940;28;20252;-69
2022/02/19 13:10:03;;;;;;;3.10;1.38;;;12.50;51.00;;;;;;5114361;28;20205;-69